Alkor — DBND — position and weather

sailwx.info

Track history (hours):
 
Tides and Currents Weather Stations Pressure Air Temp Water Temp Dewpoint Dewpoint Depression Visibility Wind Speed Wind Dir Waves Ship Positions

Oceanographic research ship Alkor (Germany)

Ship's website: http://www.briese.de/

Detailed information on ship capabilities available from University of Delaware's Ocean Information Center.

Last reported at 2018-Dec-17 04:00 UTC. Time now 2018-Dec-17 04:37 UTC.
Position N 54°24' E 010°12'.

Length 55 m; draft 4.2 m.

Type: Ship. MMSI: 211216512.

Wind from 120 at 6 knots

Barometer 1015.4 mb
Air temperature -0.3 ° C
Water temperature 8.3 ° C

Date/timePositionNaut miles runAvg speedWind from/ knotsBaromVisibWave heightAir tempDewpointWater temp
2018-Dec-17 04:00N 54°24' E 010°12'0 0.0 120 / 61015.4 -0.3 8.3
2018-Dec-17 03:00N 54°24' E 010°12'0 0.0 120 / 51015.0 -0.3 8.2
2018-Dec-17 02:00N 54°24' E 010°12'0 0.0 170 / 51014.9 0.2 8.2
2018-Dec-17 01:00N 54°24' E 010°12'0 0.0 160 / 51014.4 -0.1 8.2
2018-Dec-17 00:00N 54°24' E 010°12'0 0.0 130 / 61014.1 -0.3 8.2
2018-Dec-16 23:00N 54°24' E 010°12'0 0.0 150 / 71014.2 -0.3 8.2
2018-Dec-16 22:00N 54°24' E 010°12'0 0.0 120 / 71013.9 -0.3 8.2
2018-Dec-16 21:00N 54°24' E 010°12'0 0.0 120 / 71013.5 -0.5 8.2
2018-Dec-16 20:00N 54°24' E 010°12'0 0.0 130 / 81013.4 -0.8 8.1
2018-Dec-16 19:00N 54°24' E 010°12'0 0.0 150 / 101013.1 -0.7 8.2
2018-Dec-16 18:00N 54°24' E 010°12'0 0.0 140 / 111012.7 -0.0 8.2
2018-Dec-16 17:00N 54°24' E 010°12'0 0.0 140 / 111012.7 -0.0 8.2
2018-Dec-16 16:00N 54°24' E 010°12'0 0.0 130 / 121012.6 0.2 8.3
2018-Dec-16 15:00N 54°24' E 010°12'0 0.0 130 / 121012.4 0.2 8.3
2018-Dec-16 14:00N 54°24' E 010°12'0 0.0 140 / 121012.6 0.4 8.3
2018-Dec-16 13:00N 54°24' E 010°12'0 0.0 140 / 121012.6 0.4 8.3
2018-Dec-16 12:00N 54°24' E 010°12'0 0.0 130 / 151013.0 0.4 8.1
2018-Dec-16 11:00N 54°24' E 010°12'0 0.0 130 / 141013.6 0.7 7.9
2018-Dec-16 10:00N 54°24' E 010°12'0 0.0 130 / 171014.1 0.4 7.9
2018-Dec-16 09:00N 54°24' E 010°12'0 0.0 130 / 151014.6 0.7 8.1
2018-Dec-16 08:00N 54°24' E 010°12'0 0.0 140 / 131015.1 0.9 8.1
2018-Dec-16 07:00N 54°24' E 010°12'0 0.0 140 / 141015.2 0.7 8.1
2018-Dec-16 06:00N 54°24' E 010°12'0 0.0 120 / 121015.7 0.2 8.0
2018-Dec-16 05:00N 54°24' E 010°12'0 0.0 130 / 131016.1 0.5 7.9
2018-Dec-16 04:00N 54°24' E 010°12'0 0.0 140 / 131017.2 0.5 7.9
2018-Dec-16 03:00N 54°24' E 010°12'0 0.0 110 / 121018.0 -0.0 8.1
2018-Dec-16 02:00N 54°24' E 010°12'0 0.0 140 / 81019.3 -0.2 8.1
2018-Dec-16 01:00N 54°24' E 010°12'0 0.0 130 / 111019.5 -0.3 7.8
2018-Dec-16 00:00N 54°24' E 010°12'0 0.0 120 / 131020.2 -0.1 7.8
2018-Dec-15 23:00N 54°24' E 010°12'0 0.0 130 / 181021.0 0.2 7.8
2018-Dec-15 22:00N 54°24' E 010°12'0 0.0 150 / 121022.4 0.2 8.2
2018-Dec-15 21:00N 54°24' E 010°12'0 0.0 120 / 131022.9 0.2 8.3
2018-Dec-15 20:00N 54°24' E 010°12'0 0.0 120 / 121023.9 -0.0 8.4
2018-Dec-15 19:00N 54°24' E 010°12'0 0.0 130 / 101024.7 -0.1 8.5
2018-Dec-15 18:00N 54°24' E 010°12'0 0.0 120 / 101025.6 -0.3 8.7
2018-Dec-15 17:00N 54°24' E 010°12'0 0.0 110 / 111026.1 -0.1 8.7
2018-Dec-15 16:00N 54°24' E 010°12'0 0.0 120 / 111026.8 -0.2 9.0
2018-Dec-15 15:00N 54°24' E 010°12'0 0.0 140 / 81027.3 0.7 9.4
2018-Dec-15 14:00N 54°24' E 010°12'0 0.0 150 / 91027.8 0.9 9.7
2018-Dec-15 13:00N 54°24' E 010°12'0 0.0 140 / 91027.9 0.9 9.8
2018-Dec-15 12:00N 54°24' E 010°12'0 0.0 130 / 91028.3 1.0 9.9
2018-Dec-15 11:00N 54°24' E 010°12'0 0.0 120 / 91028.9 1.2 9.9
2018-Dec-15 10:00N 54°24' E 010°12'0 0.0 120 / 61029.5 0.9 9.8
2018-Dec-15 09:00N 54°24' E 010°12'0 0.0 110 / 61029.6 0.5 9.6
2018-Dec-15 08:00N 54°24' E 010°12'0 0.0 150 / 61029.5 0.7 9.7
2018-Dec-15 07:00N 54°24' E 010°12'0 0.0 140 / 61029.4 0.7 9.9
2018-Dec-15 06:00N 54°24' E 010°12'0 0.0 130 / 51029.3 0.7 10.0
2018-Dec-15 05:00N 54°24' E 010°12'0 0.0 150 / 51029.2 0.7 10.0
2018-Dec-15 04:00N 54°24' E 010°12'0 0.0 120 / 41029.2 0.9 9.7
2018-Dec-15 03:00N 54°24' E 010°12'0 0.0 140 / 61029.1 0.7 9.5
2018-Dec-15 02:00N 54°24' E 010°12'0 0.0 150 / 91029.1 0.9 9.4
2018-Dec-15 01:00N 54°24' E 010°12'0 0.0 150 / 91028.8 0.9 9.4
2018-Dec-15 00:00N 54°24' E 010°12'0 0.0 130 / 101028.7 0.9 9.5
2018-Dec-14 23:00N 54°24' E 010°12'0 0.0 150 / 91028.7 1.2 9.6
2018-Dec-14 22:00N 54°24' E 010°12'0 0.0 120 / 51028.8 1.2 9.7
2018-Dec-14 21:00N 54°24' E 010°12'0 0.0 140 / 71028.6 1.4 9.6
2018-Dec-14 20:00N 54°24' E 010°12'0 0.0 130 / 81028.4 1.4 9.6
2018-Dec-14 19:00N 54°24' E 010°12'0 0.0 090 / 81028.1 1.7 9.6
2018-Dec-14 18:00N 54°24' E 010°12'0 0.0 110 / 91027.8 1.7 9.6
2018-Dec-14 17:00N 54°24' E 010°12'0 0.0 110 / 111027.6 2.2 9.7
2018-Dec-14 16:00N 54°24' E 010°12'0 0.0 070 / 121027.5 2.7 10.2
2018-Dec-14 15:00N 54°24' E 010°12'0 0.0 080 / 81027.2 2.4 10.2
2018-Dec-14 14:00N 54°24' E 010°12'0 0.0 100 / 81027.2 2.5 10.2
2018-Dec-14 13:00N 54°24' E 010°12'0 0.0 100 / 51026.9 2.5 10.3
2018-Dec-14 12:00N 54°24' E 010°12'0 0.0 120 / 81027.0 2.7 10.1
2018-Dec-14 11:00N 54°24' E 010°12'0 0.0 100 / 81026.8 2.5 10.0
2018-Dec-14 10:00N 54°24' E 010°12'0 0.0 100 / 41026.9 2.4 9.8
2018-Dec-14 09:00N 54°24' E 010°12'0 0.0 150 / 81026.6 2.2 9.1
2018-Dec-14 08:00N 54°24' E 010°12'0 0.0 080 / 81025.9 2.7 8.5
2018-Dec-14 07:00N 54°24' E 010°12'0 0.0 1025.5 2.0 8.2
2018-Dec-14 06:00N 54°24' E 010°12'0 0.0 1025.1 3.0 8.5
2018-Dec-14 05:00N 54°24' E 010°12'0 0.0 1025.4 2.0 8.4
2018-Dec-14 04:00N 54°24' E 010°12'0 0.0 1025.4 2.9 8.4
2018-Dec-14 03:00N 54°24' E 010°12'0 0.0
2018-Dec-14 02:00N 54°24' E 010°12'0 0.0 1025.7 3.2 8.2
2018-Dec-14 01:00N 54°24' E 010°12'0 0.0 1025.9 3.0 8.1
2018-Dec-14 00:00N 54°24' E 010°12'0 0.0 1025.6 2.9 7.8
2018-Dec-13 23:00N 54°24' E 010°12'0 0.0 1025.6 3.0 7.5
2018-Dec-13 22:00N 54°24' E 010°12'0 0.0 1025.7 2.5 7.0
2018-Dec-13 21:00N 54°24' E 010°12'0 0.0 1025.7 2.5 6.7
2018-Dec-13 20:00N 54°24' E 010°12'0 0.0 1025.5 2.4 7.0
2018-Dec-13 19:00N 54°24' E 010°12'0 0.0 1025.3 3.4 7.3
2018-Dec-13 18:00N 54°24' E 010°12'0 0.0 1025.2 3.2 7.6
2018-Dec-13 17:00N 54°24' E 010°12'0 0.0 1024.9 3.4 8.2
2018-Dec-13 16:00N 54°24' E 010°12'0 0.0 1024.9 3.0 8.7
2018-Dec-13 15:00N 54°24' E 010°12'0 0.0 1024.9 3.7 8.9
2018-Dec-13 14:00N 54°24' E 010°12'0 0.0 1025.1 3.4 8.5
2018-Dec-13 13:00N 54°24' E 010°12'0 0.0 070 / 161025.2 3.4 8.3
2018-Dec-13 12:00N 54°24' E 010°12'0 0.0 070 / 151025.4 3.4 8.5
2018-Dec-13 11:00N 54°24' E 010°12'0 0.0 070 / 131025.7 3.4 9.1
2018-Dec-13 10:00N 54°24' E 010°12'0 0.0 060 / 101025.9 2.9 9.4
2018-Dec-13 09:00N 54°24' E 010°12'0 0.0 060 / 91026.2 2.7 9.4
2018-Dec-13 08:00N 54°24' E 010°12'0 0.0 060 / 121026.3 2.7 9.5
2018-Dec-13 07:00N 54°24' E 010°12'0 0.0 070 / 101026.5 1.4 9.7
2018-Dec-13 06:00N 54°24' E 010°12'0 0.0 070 / 81026.5 2.4 9.6
2018-Dec-13 05:00N 54°24' E 010°12'0 0.0 040 / 101027.0 2.4 9.6
2018-Dec-13 04:00N 54°24' E 010°12'0 0.0 060 / 101027.2 3.0 9.9
2018-Dec-13 03:00N 54°24' E 010°12'0 0.0 060 / 111027.6 3.4 10.4
2018-Dec-13 02:00N 54°24' E 010°12'0 0.0 060 / 111027.7 3.5 10.5
2018-Dec-13 01:00N 54°24' E 010°12'0 0.0 060 / 111027.9 3.7 10.6
2018-Dec-13 00:00N 54°24' E 010°12'0 0.0 070 / 101028.0 3.9 10.5
2018-Dec-12 23:00N 54°24' E 010°12'0 0.0 080 / 111028.2 4.2 10.6
2018-Dec-12 22:00N 54°24' E 010°12'0 0.0 070 / 121028.2 4.2 10.7
2018-Dec-12 21:00N 54°24' E 010°12'0 0.0 070 / 141028.2 4.2 10.6
2018-Dec-12 20:00N 54°24' E 010°12'0 0.0 070 / 131028.0 4.0 10.7
2018-Dec-12 19:00N 54°24' E 010°12'0 0.0 070 / 131027.9 4.4 10.8
2018-Dec-12 18:00N 54°24' E 010°12'0 0.0 060 / 141027.9 4.4 10.8
2018-Dec-12 17:00N 54°24' E 010°12'0 0.0 070 / 101027.8 4.4 10.8
2018-Dec-12 16:00N 54°24' E 010°12'0 0.0 070 / 91027.8 4.2 10.6
2018-Dec-12 15:00N 54°24' E 010°12'0 0.0 060 / 91027.5 4.4 10.0
2018-Dec-12 14:00N 54°24' E 010°12'0 0.0 060 / 101027.8 4.4 9.1
2018-Dec-12 13:00N 54°24' E 010°12'0 0.0 050 / 121028.2 4.4 7.7
2018-Dec-12 12:00N 54°24' E 010°12'0 0.0 060 / 121028.1 4.7 7.3
2018-Dec-12 11:00N 54°24' E 010°12'0 0.0 060 / 131028.1 4.4 6.8
2018-Dec-12 10:00N 54°24' E 010°12'0 0.0 050 / 101028.1 4.7 7.9
2018-Dec-12 09:00N 54°24' E 010°12'0 0.0 050 / 101027.6 4.7 7.9
2018-Dec-12 08:00N 54°24' E 010°12'0 0.0 050 / 101027.3 4.9 7.9
2018-Dec-12 07:00N 54°24' E 010°12'0 0.0 050 / 111026.8 5.2 7.9
2018-Dec-12 06:00N 54°24' E 010°12'0 0.0 040 / 91026.2 5.2 7.9
2018-Dec-12 05:00N 54°24' E 010°12'0 0.0 050 / 61025.6 5.2 8.0
2018-Dec-12 04:00N 54°24' E 010°12'0 0.0 040 / 71025.4 5.2 7.9
2018-Dec-12 03:00N 54°24' E 010°12'0 0.0 020 / 71025.3 5.0 8.0
2018-Dec-12 02:00N 54°24' E 010°12'0 0.0 040 / 91025.0 5.2 8.0
2018-Dec-12 01:00N 54°24' E 010°12'0 0.0 020 / 71024.6 5.0 7.9
2018-Dec-12 00:00N 54°24' E 010°12'0 0.0 040 / 101024.2 5.2 7.9
2018-Dec-11 23:00N 54°24' E 010°12'0 0.0 030 / 91023.7 5.4 7.8
2018-Dec-11 22:00N 54°24' E 010°12'0 0.0 010 / 61023.3 5.2 7.7
2018-Dec-11 21:00N 54°24' E 010°12'0 0.0 010 / 81022.9 5.2 7.8
2018-Dec-11 20:00N 54°24' E 010°12'0 0.0 010 / 81022.6 5.0 7.7
2018-Dec-11 19:00N 54°24' E 010°12'0 0.0 350 / 91022.0 5.4 7.8
2018-Dec-11 18:00N 54°24' E 010°12'0 0.0 010 / 81021.6 5.5 7.8
2018-Dec-11 17:00N 54°24' E 010°12'0 0.0 020 / 101021.0 5.4 7.8
2018-Dec-11 16:00N 54°24' E 010°12'0 0.0 010 / 81020.4 5.5 7.8
2018-Dec-11 15:00N 54°24' E 010°12'0 0.0 360 / 71020.0 5.7 7.8
2018-Dec-11 14:00N 54°24' E 010°12'0 0.0 350 / 81019.5 5.7 7.8
2018-Dec-11 13:00N 54°24' E 010°12'0 0.0 350 / 101019.1 5.5 7.9
2018-Dec-11 12:00N 54°24' E 010°12'0 0.0 360 / 101018.5 5.4 8.0
2018-Dec-11 11:00N 54°24' E 010°12'0 0.0 330 / 101018.0 5.2 8.0
2018-Dec-11 10:00N 54°24' E 010°12'0 0.0 320 / 61017.6 4.2 8.0
2018-Dec-11 09:00N 54°24' E 010°12'0 0.0 320 / 81017.2 3.9 7.9
2018-Dec-11 08:00N 54°24' E 010°12'0 0.0 310 / 81016.6 3.7 7.9
2018-Dec-11 07:00N 54°24' E 010°12'0 0.0 310 / 61016.1 3.7 7.9
2018-Dec-11 06:00N 54°24' E 010°12'0 0.0 320 / 71015.3 3.9 8.1
2018-Dec-11 05:00N 54°24' E 010°12'0 0.0 310 / 91014.7 3.9 8.2
2018-Dec-11 04:00N 54°24' E 010°12'0 0.0 310 / 101014.1 3.9 8.3
2018-Dec-11 03:00N 54°24' E 010°12'0 0.0 300 / 71013.8 3.9 8.2
2018-Dec-11 02:00N 54°24' E 010°12'0 0.0 300 / 81013.2 4.2 8.2
2018-Dec-11 01:00N 54°24' E 010°12'0 0.0 300 / 91012.7 4.5 8.2
2018-Dec-11 00:00N 54°24' E 010°12'0 0.0 310 / 81012.4 4.9 8.2
2018-Dec-10 23:00N 54°24' E 010°12'0 0.0 300 / 81011.9 4.9 8.2
2018-Dec-10 22:00N 54°24' E 010°12'0 0.0 300 / 91011.3 5.0 8.1
2018-Dec-10 21:00N 54°24' E 010°12'0 0.0 300 / 71011.0 5.0 8.1
2018-Dec-10 20:00N 54°24' E 010°12'0 0.0 300 / 81010.7 4.9 8.2
2018-Dec-10 19:00N 54°24' E 010°12'0 0.0 300 / 71010.1 5.2 8.3
2018-Dec-10 18:00N 54°24' E 010°12'0 0.0 300 / 91009.5 5.4 8.3
2018-Dec-10 17:00N 54°24' E 010°12'0 0.0 290 / 111009.1 5.5 8.3
2018-Dec-10 16:00N 54°24' E 010°12'0 0.0 290 / 111008.7 6.0 8.3
2018-Dec-10 15:00N 54°24' E 010°12'0 0.0 280 / 121008.5 6.2 8.3
2018-Dec-10 14:00N 54°24' E 010°12'0 0.0 270 / 101008.2 5.7 8.4
2018-Dec-10 13:00N 54°24' E 010°12'0 0.0 280 / 111008.2 5.7 8.3
2018-Dec-10 12:00N 54°24' E 010°12'0 0.0 280 / 111008.3 5.2 8.4
2018-Dec-10 11:00N 54°24' E 010°12'0 0.0 280 / 111008.7 6.4 8.4
2018-Dec-10 10:00N 54°24' E 010°12'0 0.0 270 / 131008.9 5.4 8.4
2018-Dec-10 09:00N 54°24' E 010°12'0 0.0 270 / 101008.7 4.9 8.4
2018-Dec-10 08:00N 54°24' E 010°12'0 0.0 290 / 101008.3 4.7 8.4
2018-Dec-10 07:00N 54°24' E 010°12'0 0.0 280 / 131007.6 5.2 8.4
2018-Dec-10 06:00N 54°24' E 010°12'0 0.0 270 / 101007.0 4.9 8.5
2018-Dec-10 05:00N 54°24' E 010°12'0 0.0 280 / 111006.7 5.0 8.5
2018-Dec-10 04:00N 54°24' E 010°12'0 0.0 280 / 101005.8 5.0 8.5
2018-Dec-10 03:00N 54°24' E 010°12'0 0.0 260 / 101005.4 4.7 8.5
2018-Dec-10 02:00N 54°24' E 010°12'0 0.0 290 / 91005.0 5.4 8.6
2018-Dec-10 01:00N 54°24' E 010°12'0 0.0 280 / 111004.0 5.7 8.6
2018-Dec-10 00:00N 54°24' E 010°12'0 0.0 290 / 101003.3 5.7 8.6
2018-Dec-09 23:00N 54°24' E 010°12'0 0.0 280 / 111002.4 5.7 8.6
2018-Dec-09 22:00N 54°24' E 010°12'0 0.0 290 / 101001.6 5.9 8.7
2018-Dec-09 21:00N 54°24' E 010°12'0 0.0 280 / 101000.5 6.2 8.7
2018-Dec-09 20:00N 54°24' E 010°12'0 0.0 290 / 9999.3 6.2 8.7
2018-Dec-09 19:00N 54°24' E 010°12'0 0.0 290 / 9997.7 6.7 8.7
2018-Dec-09 18:00N 54°24' E 010°12'0 0.0 300 / 13995.8 7.2 8.7
2018-Dec-09 17:00N 54°24' E 010°12'0 0.0 290 / 13994.1 7.2 8.8
2018-Dec-09 16:00N 54°24' E 010°12'0 0.0 290 / 12992.8 7.5 8.8
2018-Dec-09 15:00N 54°24' E 010°12'0 0.0 280 / 12991.7 7.5 8.8
2018-Dec-09 14:00N 54°24' E 010°12'0 0.0 280 / 10990.5 7.4 8.8
2018-Dec-09 13:00N 54°24' E 010°12'0 0.0 260 / 12989.3 7.4 8.8
2018-Dec-09 12:00N 54°24' E 010°12'0 0.0 260 / 12988.7 7.4 8.7
2018-Dec-09 11:00N 54°24' E 010°12'0 0.0 250 / 12988.3 8.2 8.7
2018-Dec-09 10:00N 54°24' E 010°12'0 0.0 250 / 10988.1 6.7 8.7
2018-Dec-09 09:00N 54°24' E 010°12'0 0.0 250 / 9987.4 6.9 8.7
2018-Dec-09 08:00N 54°24' E 010°12'0 0.0 250 / 10986.5 6.9 8.7
2018-Dec-09 07:00N 54°24' E 010°12'0 0.0 240 / 10985.6 6.7 8.6
2018-Dec-09 06:00N 54°24' E 010°12'0 0.0 250 / 12984.8 6.7 8.6
2018-Dec-09 05:00N 54°24' E 010°12'0 0.0 250 / 11984.4 6.9 8.6
2018-Dec-09 04:00N 54°24' E 010°12'0 0.0 250 / 11984.1 7.0 8.5
2018-Dec-09 03:00N 54°24' E 010°12'0 0.0 250 / 10983.7 7.0 8.4
2018-Dec-09 02:00N 54°24' E 010°12'0 0.0 250 / 8983.8 6.7 8.4
2018-Dec-09 01:00N 54°24' E 010°12'0 0.0 220 / 12983.8 6.9 8.2
2018-Dec-08 23:00N 54°24' E 010°12'0 0.0 220 / 17985.5 7.7 8.1
2018-Dec-08 22:00N 54°24' E 010°12'0 0.0 220 / 17986.5 7.5 8.1
2018-Dec-08 21:00N 54°24' E 010°12'0 0.0 240 / 17987.5 7.9 8.1
2018-Dec-08 20:00N 54°24' E 010°12'0 0.0 240 / 21988.3 7.7 8.1
2018-Dec-08 19:00N 54°24' E 010°12'0 0.0 240 / 24988.8 8.2 8.1
2018-Dec-08 18:00N 54°24' E 010°12'0 0.0 240 / 19989.1 7.9 8.1
2018-Dec-08 17:00N 54°24' E 010°12'0 0.0 240 / 21989.0 8.2 8.1
2018-Dec-08 16:00N 54°24' E 010°12'0 0.0 240 / 22989.2 8.7 8.1
2018-Dec-08 15:00N 54°24' E 010°12'0 0.0 240 / 23989.2 8.4 8.1
2018-Dec-08 14:00N 54°24' E 010°12'0 0.0 240 / 20989.6 8.4 8.1
2018-Dec-08 13:00N 54°24' E 010°12'0 0.0 230 / 19989.7 8.0 8.0
2018-Dec-08 12:00N 54°24' E 010°12'0 0.0 230 / 21990.1 7.9 8.0
2018-Dec-08 11:00N 54°24' E 010°12'0 0.0 220 / 21990.6 7.0 8.0
2018-Dec-08 10:00N 54°24' E 010°12'0 0.0 230 / 22991.4 7.4 8.0
2018-Dec-08 09:00N 54°24' E 010°12'0 0.0 230 / 19992.2 7.4 8.0
2018-Dec-08 08:00N 54°24' E 010°12'0 0.0 220 / 20992.8 6.7 8.0
2018-Dec-08 07:00N 54°24' E 010°12'0 0.0 220 / 20993.3 6.2 8.0
2018-Dec-08 06:00N 54°24' E 010°12'0 0.0 220 / 20993.5 5.9 8.2
2018-Dec-08 05:00N 54°24' E 010°12'0 0.0 220 / 18994.6 5.7 8.3
2018-Dec-08 04:00N 54°24' E 010°12'0 0.0 230 / 17995.0 5.9 8.5
2018-Dec-08 03:00N 54°24' E 010°12'0 0.0 230 / 17995.4 6.2 8.5
2018-Dec-08 02:00N 54°24' E 010°12'0 0.0 250 / 19995.5 6.2 8.6
2018-Dec-08 01:00N 54°24' E 010°12'0 0.0 240 / 14994.7 7.4 8.6
2018-Dec-08 00:00N 54°24' E 010°12'0 0.0 240 / 12994.2 7.0 8.6
2018-Dec-07 23:00N 54°24' E 010°12'0 0.0 250 / 15993.5 7.4 8.6
2018-Dec-07 22:00N 54°24' E 010°12'0 0.0 260 / 14992.7 7.4 8.5
2018-Dec-07 21:00N 54°24' E 010°12'0 0.0 270 / 13991.3 8.7 8.4
2018-Dec-07 20:00N 54°24' E 010°12'0 0.0 210 / 18990.2 10.2 8.3
2018-Dec-07 19:00N 54°24' E 010°12'0 0.0 210 / 19991.1 10.4 8.3
2018-Dec-07 18:00N 54°24' E 010°12'0 0.0 200 / 19992.0 10.4 8.4
2018-Dec-07 17:00N 54°24' E 010°12'0 0.0 210 / 18993.1 10.7 8.4
2018-Dec-07 16:00N 54°24' E 010°12'0 0.0 210 / 17994.3 10.9 8.4
2018-Dec-07 15:00N 54°24' E 010°12'0 0.0 220 / 17995.5 11.4 8.5
2018-Dec-07 14:00N 54°24' E 010°12'0 0.0 220 / 14996.5 10.9 8.6
2018-Dec-07 13:00N 54°24' E 010°12'0 0.0 220 / 14997.7 10.9 8.7
2018-Dec-07 12:00N 54°24' E 010°12'0 0.0 210 / 13998.9 10.7 8.7
2018-Dec-07 11:00N 54°24' E 010°12'0 0.0 220 / 131000.4 11.2 8.6
2018-Dec-07 10:00N 54°24' E 010°12'0 0.0 220 / 141001.7 11.0 8.5
2018-Dec-07 09:00N 54°24' E 010°12'0 0.0 220 / 101002.7 10.5 8.4
2018-Dec-07 08:00N 54°24' E 010°12'0 0.0 220 / 91003.5 10.4 8.4
2018-Dec-07 07:00N 54°24' E 010°12'0 0.0 230 / 81004.5 10.0 8.4
2018-Dec-07 06:00N 54°24' E 010°12'0 0.0 240 / 71005.0 9.7 8.4
2018-Dec-07 05:00N 54°24' E 010°12'0 0.0 240 / 91005.5 9.7 8.4
2018-Dec-07 04:00N 54°24' E 010°12'   250 / 101006.0 9.9 8.3
Track history (hours):
 
Tides and Currents Weather Stations Pressure Air Temp Water Temp Dewpoint Dewpoint Depression Visibility Wind Speed Wind Dir Waves Ship Positions

Oceanographic research ship Alkor (Germany)

Ship's website: http://www.briese.de/

Detailed information on ship capabilities available from University of Delaware's Ocean Information Center.

Last reported at 2018-Dec-17 04:00 UTC. Time now 2018-Dec-17 04:37 UTC.
Position N 54°24' E 010°12'.

Length 55 m; draft 4.2 m.

Type: Ship. MMSI: 211216512.

Wind from 120 at 6 knots

Barometer 1015.4 mb
Air temperature -0.3 ° C
Water temperature 8.3 ° C

Date/timePositionNaut miles runAvg speedWind from/ knotsBaromVisibWave heightAir tempDewpointWater temp
2018-Dec-17 04:00N 54°24' E 010°12'0 0.0 120 / 61015.4 -0.3 8.3
2018-Dec-17 03:00N 54°24' E 010°12'0 0.0 120 / 51015.0 -0.3 8.2
2018-Dec-17 02:00N 54°24' E 010°12'0 0.0 170 / 51014.9 0.2 8.2
2018-Dec-17 01:00N 54°24' E 010°12'0 0.0 160 / 51014.4 -0.1 8.2
2018-Dec-17 00:00N 54°24' E 010°12'0 0.0 130 / 61014.1 -0.3 8.2
2018-Dec-16 23:00N 54°24' E 010°12'0 0.0 150 / 71014.2 -0.3 8.2
2018-Dec-16 22:00N 54°24' E 010°12'0 0.0 120 / 71013.9 -0.3 8.2
2018-Dec-16 21:00N 54°24' E 010°12'0 0.0 120 / 71013.5 -0.5 8.2
2018-Dec-16 20:00N 54°24' E 010°12'0 0.0 130 / 81013.4 -0.8 8.1
2018-Dec-16 19:00N 54°24' E 010°12'0 0.0 150 / 101013.1 -0.7 8.2
2018-Dec-16 18:00N 54°24' E 010°12'0 0.0 140 / 111012.7 -0.0 8.2
2018-Dec-16 17:00N 54°24' E 010°12'0 0.0 140 / 111012.7 -0.0 8.2
2018-Dec-16 16:00N 54°24' E 010°12'0 0.0 130 / 121012.6 0.2 8.3
2018-Dec-16 15:00N 54°24' E 010°12'0 0.0 130 / 121012.4 0.2 8.3
2018-Dec-16 14:00N 54°24' E 010°12'0 0.0 140 / 121012.6 0.4 8.3
2018-Dec-16 13:00N 54°24' E 010°12'0 0.0 140 / 121012.6 0.4 8.3
2018-Dec-16 12:00N 54°24' E 010°12'0 0.0 130 / 151013.0 0.4 8.1
2018-Dec-16 11:00N 54°24' E 010°12'0 0.0 130 / 141013.6 0.7 7.9
2018-Dec-16 10:00N 54°24' E 010°12'0 0.0 130 / 171014.1 0.4 7.9
2018-Dec-16 09:00N 54°24' E 010°12'0 0.0 130 / 151014.6 0.7 8.1
2018-Dec-16 08:00N 54°24' E 010°12'0 0.0 140 / 131015.1 0.9 8.1
2018-Dec-16 07:00N 54°24' E 010°12'0 0.0 140 / 141015.2 0.7 8.1
2018-Dec-16 06:00N 54°24' E 010°12'0 0.0 120 / 121015.7 0.2 8.0
2018-Dec-16 05:00N 54°24' E 010°12'0 0.0 130 / 131016.1 0.5 7.9
2018-Dec-16 04:00N 54°24' E 010°12'0 0.0 140 / 131017.2 0.5 7.9
2018-Dec-16 03:00N 54°24' E 010°12'0 0.0 110 / 121018.0 -0.0 8.1
2018-Dec-16 02:00N 54°24' E 010°12'0 0.0 140 / 81019.3 -0.2 8.1
2018-Dec-16 01:00N 54°24' E 010°12'0 0.0 130 / 111019.5 -0.3 7.8
2018-Dec-16 00:00N 54°24' E 010°12'0 0.0 120 / 131020.2 -0.1 7.8
2018-Dec-15 23:00N 54°24' E 010°12'0 0.0 130 / 181021.0 0.2 7.8
2018-Dec-15 22:00N 54°24' E 010°12'0 0.0 150 / 121022.4 0.2 8.2
2018-Dec-15 21:00N 54°24' E 010°12'0 0.0 120 / 131022.9 0.2 8.3
2018-Dec-15 20:00N 54°24' E 010°12'0 0.0 120 / 121023.9 -0.0 8.4
2018-Dec-15 19:00N 54°24' E 010°12'0 0.0 130 / 101024.7 -0.1 8.5
2018-Dec-15 18:00N 54°24' E 010°12'0 0.0 120 / 101025.6 -0.3 8.7
2018-Dec-15 17:00N 54°24' E 010°12'0 0.0 110 / 111026.1 -0.1 8.7
2018-Dec-15 16:00N 54°24' E 010°12'0 0.0 120 / 111026.8 -0.2 9.0
2018-Dec-15 15:00N 54°24' E 010°12'0 0.0 140 / 81027.3 0.7 9.4
2018-Dec-15 14:00N 54°24' E 010°12'0 0.0 150 / 91027.8 0.9 9.7
2018-Dec-15 13:00N 54°24' E 010°12'0 0.0 140 / 91027.9 0.9 9.8
2018-Dec-15 12:00N 54°24' E 010°12'0 0.0 130 / 91028.3 1.0 9.9
2018-Dec-15 11:00N 54°24' E 010°12'0 0.0 120 / 91028.9 1.2 9.9
2018-Dec-15 10:00N 54°24' E 010°12'0 0.0 120 / 61029.5 0.9 9.8
2018-Dec-15 09:00N 54°24' E 010°12'0 0.0 110 / 61029.6 0.5 9.6
2018-Dec-15 08:00N 54°24' E 010°12'0 0.0 150 / 61029.5 0.7 9.7
2018-Dec-15 07:00N 54°24' E 010°12'0 0.0 140 / 61029.4 0.7 9.9
2018-Dec-15 06:00N 54°24' E 010°12'0 0.0 130 / 51029.3 0.7 10.0
2018-Dec-15 05:00N 54°24' E 010°12'0 0.0 150 / 51029.2 0.7 10.0
2018-Dec-15 04:00N 54°24' E 010°12'0 0.0 120 / 41029.2 0.9 9.7
2018-Dec-15 03:00N 54°24' E 010°12'0 0.0 140 / 61029.1 0.7 9.5
2018-Dec-15 02:00N 54°24' E 010°12'0 0.0 150 / 91029.1 0.9 9.4
2018-Dec-15 01:00N 54°24' E 010°12'0 0.0 150 / 91028.8 0.9 9.4
2018-Dec-15 00:00N 54°24' E 010°12'0 0.0 130 / 101028.7 0.9 9.5
2018-Dec-14 23:00N 54°24' E 010°12'0 0.0 150 / 91028.7 1.2 9.6
2018-Dec-14 22:00N 54°24' E 010°12'0 0.0 120 / 51028.8 1.2 9.7
2018-Dec-14 21:00N 54°24' E 010°12'0 0.0 140 / 71028.6 1.4 9.6
2018-Dec-14 20:00N 54°24' E 010°12'0 0.0 130 / 81028.4 1.4 9.6
2018-Dec-14 19:00N 54°24' E 010°12'0 0.0 090 / 81028.1 1.7 9.6
2018-Dec-14 18:00N 54°24' E 010°12'0 0.0 110 / 91027.8 1.7 9.6
2018-Dec-14 17:00N 54°24' E 010°12'0 0.0 110 / 111027.6 2.2 9.7
2018-Dec-14 16:00N 54°24' E 010°12'0 0.0 070 / 121027.5 2.7 10.2
2018-Dec-14 15:00N 54°24' E 010°12'0 0.0 080 / 81027.2 2.4 10.2
2018-Dec-14 14:00N 54°24' E 010°12'0 0.0 100 / 81027.2 2.5 10.2
2018-Dec-14 13:00N 54°24' E 010°12'0 0.0 100 / 51026.9 2.5 10.3
2018-Dec-14 12:00N 54°24' E 010°12'0 0.0 120 / 81027.0 2.7 10.1
2018-Dec-14 11:00N 54°24' E 010°12'0 0.0 100 / 81026.8 2.5 10.0
2018-Dec-14 10:00N 54°24' E 010°12'0 0.0 100 / 41026.9 2.4 9.8
2018-Dec-14 09:00N 54°24' E 010°12'0 0.0 150 / 81026.6 2.2 9.1
2018-Dec-14 08:00N 54°24' E 010°12'0 0.0 080 / 81025.9 2.7 8.5
2018-Dec-14 07:00N 54°24' E 010°12'0 0.0 1025.5 2.0 8.2
2018-Dec-14 06:00N 54°24' E 010°12'0 0.0 1025.1 3.0 8.5
2018-Dec-14 05:00N 54°24' E 010°12'0 0.0 1025.4 2.0 8.4
2018-Dec-14 04:00N 54°24' E 010°12'0 0.0 1025.4 2.9 8.4
2018-Dec-14 03:00N 54°24' E 010°12'0 0.0
2018-Dec-14 02:00N 54°24' E 010°12'0 0.0 1025.7 3.2 8.2
2018-Dec-14 01:00N 54°24' E 010°12'0 0.0 1025.9 3.0 8.1
2018-Dec-14 00:00N 54°24' E 010°12'0 0.0 1025.6 2.9 7.8
2018-Dec-13 23:00N 54°24' E 010°12'0 0.0 1025.6 3.0 7.5
2018-Dec-13 22:00N 54°24' E 010°12'0 0.0 1025.7 2.5 7.0
2018-Dec-13 21:00N 54°24' E 010°12'0 0.0 1025.7 2.5 6.7
2018-Dec-13 20:00N 54°24' E 010°12'0 0.0 1025.5 2.4 7.0
2018-Dec-13 19:00N 54°24' E 010°12'0 0.0 1025.3 3.4 7.3
2018-Dec-13 18:00N 54°24' E 010°12'0 0.0 1025.2 3.2 7.6
2018-Dec-13 17:00N 54°24' E 010°12'0 0.0 1024.9 3.4 8.2
2018-Dec-13 16:00N 54°24' E 010°12'0 0.0 1024.9 3.0 8.7
2018-Dec-13 15:00N 54°24' E 010°12'0 0.0 1024.9 3.7 8.9
2018-Dec-13 14:00N 54°24' E 010°12'0 0.0 1025.1 3.4 8.5
2018-Dec-13 13:00N 54°24' E 010°12'0 0.0 070 / 161025.2 3.4 8.3
2018-Dec-13 12:00N 54°24' E 010°12'0 0.0 070 / 151025.4 3.4 8.5
2018-Dec-13 11:00N 54°24' E 010°12'0 0.0 070 / 131025.7 3.4 9.1
2018-Dec-13 10:00N 54°24' E 010°12'0 0.0 060 / 101025.9 2.9 9.4
2018-Dec-13 09:00N 54°24' E 010°12'0 0.0 060 / 91026.2 2.7 9.4
2018-Dec-13 08:00N 54°24' E 010°12'0 0.0 060 / 121026.3 2.7 9.5
2018-Dec-13 07:00N 54°24' E 010°12'0 0.0 070 / 101026.5 1.4 9.7
2018-Dec-13 06:00N 54°24' E 010°12'0 0.0 070 / 81026.5 2.4 9.6
2018-Dec-13 05:00N 54°24' E 010°12'0 0.0 040 / 101027.0 2.4 9.6
2018-Dec-13 04:00N 54°24' E 010°12'0 0.0 060 / 101027.2 3.0 9.9
2018-Dec-13 03:00N 54°24' E 010°12'0 0.0 060 / 111027.6 3.4 10.4
2018-Dec-13 02:00N 54°24' E 010°12'0 0.0 060 / 111027.7 3.5 10.5
2018-Dec-13 01:00N 54°24' E 010°12'0 0.0 060 / 111027.9 3.7 10.6
2018-Dec-13 00:00N 54°24' E 010°12'0 0.0 070 / 101028.0 3.9 10.5
2018-Dec-12 23:00N 54°24' E 010°12'0 0.0 080 / 111028.2 4.2 10.6
2018-Dec-12 22:00N 54°24' E 010°12'0 0.0 070 / 121028.2 4.2 10.7
2018-Dec-12 21:00N 54°24' E 010°12'0 0.0 070 / 141028.2 4.2 10.6
2018-Dec-12 20:00N 54°24' E 010°12'0 0.0 070 / 131028.0 4.0 10.7
2018-Dec-12 19:00N 54°24' E 010°12'0 0.0 070 / 131027.9 4.4 10.8
2018-Dec-12 18:00N 54°24' E 010°12'0 0.0 060 / 141027.9 4.4 10.8
2018-Dec-12 17:00N 54°24' E 010°12'0 0.0 070 / 101027.8 4.4 10.8
2018-Dec-12 16:00N 54°24' E 010°12'0 0.0 070 / 91027.8 4.2 10.6
2018-Dec-12 15:00N 54°24' E 010°12'0 0.0 060 / 91027.5 4.4 10.0
2018-Dec-12 14:00N 54°24' E 010°12'0 0.0 060 / 101027.8 4.4 9.1
2018-Dec-12 13:00N 54°24' E 010°12'0 0.0 050 / 121028.2 4.4 7.7
2018-Dec-12 12:00N 54°24' E 010°12'0 0.0 060 / 121028.1 4.7 7.3
2018-Dec-12 11:00N 54°24' E 010°12'0 0.0 060 / 131028.1 4.4 6.8
2018-Dec-12 10:00N 54°24' E 010°12'0 0.0 050 / 101028.1 4.7 7.9
2018-Dec-12 09:00N 54°24' E 010°12'0 0.0 050 / 101027.6 4.7 7.9
2018-Dec-12 08:00N 54°24' E 010°12'0 0.0 050 / 101027.3 4.9 7.9
2018-Dec-12 07:00N 54°24' E 010°12'0 0.0 050 / 111026.8 5.2 7.9
2018-Dec-12 06:00N 54°24' E 010°12'0 0.0 040 / 91026.2 5.2 7.9
2018-Dec-12 05:00N 54°24' E 010°12'0 0.0 050 / 61025.6 5.2 8.0
2018-Dec-12 04:00N 54°24' E 010°12'0 0.0 040 / 71025.4 5.2 7.9
2018-Dec-12 03:00N 54°24' E 010°12'0 0.0 020 / 71025.3 5.0 8.0
2018-Dec-12 02:00N 54°24' E 010°12'0 0.0 040 / 91025.0 5.2 8.0
2018-Dec-12 01:00N 54°24' E 010°12'0 0.0 020 / 71024.6 5.0 7.9
2018-Dec-12 00:00N 54°24' E 010°12'0 0.0 040 / 101024.2 5.2 7.9
2018-Dec-11 23:00N 54°24' E 010°12'0 0.0 030 / 91023.7 5.4 7.8
2018-Dec-11 22:00N 54°24' E 010°12'0 0.0 010 / 61023.3 5.2 7.7
2018-Dec-11 21:00N 54°24' E 010°12'0 0.0 010 / 81022.9 5.2 7.8
2018-Dec-11 20:00N 54°24' E 010°12'0 0.0 010 / 81022.6 5.0 7.7
2018-Dec-11 19:00N 54°24' E 010°12'0 0.0 350 / 91022.0 5.4 7.8
2018-Dec-11 18:00N 54°24' E 010°12'0 0.0 010 / 81021.6 5.5 7.8
2018-Dec-11 17:00N 54°24' E 010°12'0 0.0 020 / 101021.0 5.4 7.8
2018-Dec-11 16:00N 54°24' E 010°12'0 0.0 010 / 81020.4 5.5 7.8
2018-Dec-11 15:00N 54°24' E 010°12'0 0.0 360 / 71020.0 5.7 7.8
2018-Dec-11 14:00N 54°24' E 010°12'0 0.0 350 / 81019.5 5.7 7.8
2018-Dec-11 13:00N 54°24' E 010°12'0 0.0 350 / 101019.1 5.5 7.9
2018-Dec-11 12:00N 54°24' E 010°12'0 0.0 360 / 101018.5 5.4 8.0
2018-Dec-11 11:00N 54°24' E 010°12'0 0.0 330 / 101018.0 5.2 8.0
2018-Dec-11 10:00N 54°24' E 010°12'0 0.0 320 / 61017.6 4.2 8.0
2018-Dec-11 09:00N 54°24' E 010°12'0 0.0 320 / 81017.2 3.9 7.9
2018-Dec-11 08:00N 54°24' E 010°12'0 0.0 310 / 81016.6 3.7 7.9
2018-Dec-11 07:00N 54°24' E 010°12'0 0.0 310 / 61016.1 3.7 7.9
2018-Dec-11 06:00N 54°24' E 010°12'0 0.0 320 / 71015.3 3.9 8.1
2018-Dec-11 05:00N 54°24' E 010°12'0 0.0 310 / 91014.7 3.9 8.2
2018-Dec-11 04:00N 54°24' E 010°12'0 0.0 310 / 101014.1 3.9 8.3
2018-Dec-11 03:00N 54°24' E 010°12'0 0.0 300 / 71013.8 3.9 8.2
2018-Dec-11 02:00N 54°24' E 010°12'0 0.0 300 / 81013.2 4.2 8.2
2018-Dec-11 01:00N 54°24' E 010°12'0 0.0 300 / 91012.7 4.5 8.2
2018-Dec-11 00:00N 54°24' E 010°12'0 0.0 310 / 81012.4 4.9 8.2
2018-Dec-10 23:00N 54°24' E 010°12'0 0.0 300 / 81011.9 4.9 8.2
2018-Dec-10 22:00N 54°24' E 010°12'0 0.0 300 / 91011.3 5.0 8.1
2018-Dec-10 21:00N 54°24' E 010°12'0 0.0 300 / 71011.0 5.0 8.1
2018-Dec-10 20:00N 54°24' E 010°12'0 0.0 300 / 81010.7 4.9 8.2
2018-Dec-10 19:00N 54°24' E 010°12'0 0.0 300 / 71010.1 5.2 8.3
2018-Dec-10 18:00N 54°24' E 010°12'0 0.0 300 / 91009.5 5.4 8.3
2018-Dec-10 17:00N 54°24' E 010°12'0 0.0 290 / 111009.1 5.5 8.3
2018-Dec-10 16:00N 54°24' E 010°12'0 0.0 290 / 111008.7 6.0 8.3
2018-Dec-10 15:00N 54°24' E 010°12'0 0.0 280 / 121008.5 6.2 8.3
2018-Dec-10 14:00N 54°24' E 010°12'0 0.0 270 / 101008.2 5.7 8.4
2018-Dec-10 13:00N 54°24' E 010°12'0 0.0 280 / 111008.2 5.7 8.3
2018-Dec-10 12:00N 54°24' E 010°12'0 0.0 280 / 111008.3 5.2 8.4
2018-Dec-10 11:00N 54°24' E 010°12'0 0.0 280 / 111008.7 6.4 8.4
2018-Dec-10 10:00N 54°24' E 010°12'0 0.0 270 / 131008.9 5.4 8.4
2018-Dec-10 09:00N 54°24' E 010°12'0 0.0 270 / 101008.7 4.9 8.4
2018-Dec-10 08:00N 54°24' E 010°12'0 0.0 290 / 101008.3 4.7 8.4
2018-Dec-10 07:00N 54°24' E 010°12'0 0.0 280 / 131007.6 5.2 8.4
2018-Dec-10 06:00N 54°24' E 010°12'0 0.0 270 / 101007.0 4.9 8.5
2018-Dec-10 05:00N 54°24' E 010°12'0 0.0 280 / 111006.7 5.0 8.5
2018-Dec-10 04:00N 54°24' E 010°12'0 0.0 280 / 101005.8 5.0 8.5
2018-Dec-10 03:00N 54°24' E 010°12'0 0.0 260 / 101005.4 4.7 8.5
2018-Dec-10 02:00N 54°24' E 010°12'0 0.0 290 / 91005.0 5.4 8.6
2018-Dec-10 01:00N 54°24' E 010°12'0 0.0 280 / 111004.0 5.7 8.6
2018-Dec-10 00:00N 54°24' E 010°12'0 0.0 290 / 101003.3 5.7 8.6
2018-Dec-09 23:00N 54°24' E 010°12'0 0.0 280 / 111002.4 5.7 8.6
2018-Dec-09 22:00N 54°24' E 010°12'0 0.0 290 / 101001.6 5.9 8.7
2018-Dec-09 21:00N 54°24' E 010°12'0 0.0 280 / 101000.5 6.2 8.7
2018-Dec-09 20:00N 54°24' E 010°12'0 0.0 290 / 9999.3 6.2 8.7
2018-Dec-09 19:00N 54°24' E 010°12'0 0.0 290 / 9997.7 6.7 8.7
2018-Dec-09 18:00N 54°24' E 010°12'0 0.0 300 / 13995.8 7.2 8.7
2018-Dec-09 17:00N 54°24' E 010°12'0 0.0 290 / 13994.1 7.2 8.8
2018-Dec-09 16:00N 54°24' E 010°12'0 0.0 290 / 12992.8 7.5 8.8
2018-Dec-09 15:00N 54°24' E 010°12'0 0.0 280 / 12991.7 7.5 8.8
2018-Dec-09 14:00N 54°24' E 010°12'0 0.0 280 / 10990.5 7.4 8.8
2018-Dec-09 13:00N 54°24' E 010°12'0 0.0 260 / 12989.3 7.4 8.8
2018-Dec-09 12:00N 54°24' E 010°12'0 0.0 260 / 12988.7 7.4 8.7
2018-Dec-09 11:00N 54°24' E 010°12'0 0.0 250 / 12988.3 8.2 8.7
2018-Dec-09 10:00N 54°24' E 010°12'0 0.0 250 / 10988.1 6.7 8.7
2018-Dec-09 09:00N 54°24' E 010°12'0 0.0 250 / 9987.4 6.9 8.7
2018-Dec-09 08:00N 54°24' E 010°12'0 0.0 250 / 10986.5 6.9 8.7
2018-Dec-09 07:00N 54°24' E 010°12'0 0.0 240 / 10985.6 6.7 8.6
2018-Dec-09 06:00N 54°24' E 010°12'0 0.0 250 / 12984.8 6.7 8.6
2018-Dec-09 05:00N 54°24' E 010°12'0 0.0 250 / 11984.4 6.9 8.6
2018-Dec-09 04:00N 54°24' E 010°12'0 0.0 250 / 11984.1 7.0 8.5
2018-Dec-09 03:00N 54°24' E 010°12'0 0.0 250 / 10983.7 7.0 8.4
2018-Dec-09 02:00N 54°24' E 010°12'0 0.0 250 / 8983.8 6.7 8.4
2018-Dec-09 01:00N 54°24' E 010°12'0 0.0 220 / 12983.8 6.9 8.2
2018-Dec-08 23:00N 54°24' E 010°12'0 0.0 220 / 17985.5 7.7 8.1
2018-Dec-08 22:00N 54°24' E 010°12'0 0.0 220 / 17986.5 7.5 8.1
2018-Dec-08 21:00N 54°24' E 010°12'0 0.0 240 / 17987.5 7.9 8.1
2018-Dec-08 20:00N 54°24' E 010°12'0 0.0 240 / 21988.3 7.7 8.1
2018-Dec-08 19:00N 54°24' E 010°12'0 0.0 240 / 24988.8 8.2 8.1
2018-Dec-08 18:00N 54°24' E 010°12'0 0.0 240 / 19989.1 7.9 8.1
2018-Dec-08 17:00N 54°24' E 010°12'0 0.0 240 / 21989.0 8.2 8.1
2018-Dec-08 16:00N 54°24' E 010°12'0 0.0 240 / 22989.2 8.7 8.1
2018-Dec-08 15:00N 54°24' E 010°12'0 0.0 240 / 23989.2 8.4 8.1
2018-Dec-08 14:00N 54°24' E 010°12'0 0.0 240 / 20989.6 8.4 8.1
2018-Dec-08 13:00N 54°24' E 010°12'0 0.0 230 / 19989.7 8.0 8.0
2018-Dec-08 12:00N 54°24' E 010°12'0 0.0 230 / 21990.1 7.9 8.0
2018-Dec-08 11:00N 54°24' E 010°12'0 0.0 220 / 21990.6 7.0 8.0
2018-Dec-08 10:00N 54°24' E 010°12'0 0.0 230 / 22991.4 7.4 8.0
2018-Dec-08 09:00N 54°24' E 010°12'0 0.0 230 / 19992.2 7.4 8.0
2018-Dec-08 08:00N 54°24' E 010°12'0 0.0 220 / 20992.8 6.7 8.0
2018-Dec-08 07:00N 54°24' E 010°12'0 0.0 220 / 20993.3 6.2 8.0
2018-Dec-08 06:00N 54°24' E 010°12'0 0.0 220 / 20993.5 5.9 8.2
2018-Dec-08 05:00N 54°24' E 010°12'0 0.0 220 / 18994.6 5.7 8.3
2018-Dec-08 04:00N 54°24' E 010°12'0 0.0 230 / 17995.0 5.9 8.5
2018-Dec-08 03:00N 54°24' E 010°12'0 0.0 230 / 17995.4 6.2 8.5
2018-Dec-08 02:00N 54°24' E 010°12'0 0.0 250 / 19995.5 6.2 8.6
2018-Dec-08 01:00N 54°24' E 010°12'0 0.0 240 / 14994.7 7.4 8.6
2018-Dec-08 00:00N 54°24' E 010°12'0 0.0 240 / 12994.2 7.0 8.6
2018-Dec-07 23:00N 54°24' E 010°12'0 0.0 250 / 15993.5 7.4 8.6
2018-Dec-07 22:00N 54°24' E 010°12'0 0.0 260 / 14992.7 7.4 8.5
2018-Dec-07 21:00N 54°24' E 010°12'0 0.0 270 / 13991.3 8.7 8.4
2018-Dec-07 20:00N 54°24' E 010°12'0 0.0 210 / 18990.2 10.2 8.3
2018-Dec-07 19:00N 54°24' E 010°12'0 0.0 210 / 19991.1 10.4 8.3
2018-Dec-07 18:00N 54°24' E 010°12'0 0.0 200 / 19992.0 10.4 8.4
2018-Dec-07 17:00N 54°24' E 010°12'0 0.0 210 / 18993.1 10.7 8.4
2018-Dec-07 16:00N 54°24' E 010°12'0 0.0 210 / 17994.3 10.9 8.4
2018-Dec-07 15:00N 54°24' E 010°12'0 0.0 220 / 17995.5 11.4 8.5
2018-Dec-07 14:00N 54°24' E 010°12'0 0.0 220 / 14996.5 10.9 8.6
2018-Dec-07 13:00N 54°24' E 010°12'0 0.0 220 / 14997.7 10.9 8.7
2018-Dec-07 12:00N 54°24' E 010°12'0 0.0 210 / 13998.9 10.7 8.7
2018-Dec-07 11:00N 54°24' E 010°12'0 0.0 220 / 131000.4 11.2 8.6
2018-Dec-07 10:00N 54°24' E 010°12'0 0.0 220 / 141001.7 11.0 8.5
2018-Dec-07 09:00N 54°24' E 010°12'0 0.0 220 / 101002.7 10.5 8.4
2018-Dec-07 08:00N 54°24' E 010°12'0 0.0 220 / 91003.5 10.4 8.4
2018-Dec-07 07:00N 54°24' E 010°12'0 0.0 230 / 81004.5 10.0 8.4
2018-Dec-07 06:00N 54°24' E 010°12'0 0.0 240 / 71005.0 9.7 8.4
2018-Dec-07 05:00N 54°24' E 010°12'0 0.0 240 / 91005.5 9.7 8.4
2018-Dec-07 04:00N 54°24' E 010°12'   250 / 101006.0 9.9 8.3

Dump ship's entire track history